RJTJ(METAR)
02/18 15:00
METAR RJTJ 180600Z 17004KT 090V240 9999 FEW030 14/M11 Q1022 RMK
1CU030 A3019=
戻る
トップページへ戻る
IMOC Co,.Ltd.